sensor_id;sensor_type;location;lat;lon;timestamp;P1;durP1;ratioP1;P2;durP2;ratioP2
27412;SDS011;14871;52.702;5.230;2023-12-07T00:01:35;11.48;;;8.93;;
27412;SDS011;14871;52.702;5.230;2023-12-07T00:04:02;12.85;;;9.52;;
27412;SDS011;14871;52.702;5.230;2023-12-07T00:06:28;14.15;;;9.23;;
27412;SDS011;14871;52.702;5.230;2023-12-07T00:08:53;14.65;;;9.23;;
27412;SDS011;14871;52.702;5.230;2023-12-07T00:11:19;10.93;;;8.00;;
27412;SDS011;14871;52.702;5.230;2023-12-07T00:13:47;11.13;;;8.48;;
27412;SDS011;14871;52.702;5.230;2023-12-07T00:16:13;11.18;;;7.82;;
27412;SDS011;14871;52.702;5.230;2023-12-07T00:18:39;11.57;;;8.52;;
27412;SDS011;14871;52.702;5.230;2023-12-07T00:21:04;11.80;;;7.22;;
27412;SDS011;14871;52.702;5.230;2023-12-07T00:23:32;10.80;;;7.00;;
27412;SDS011;14871;52.702;5.230;2023-12-07T00:25:58;12.05;;;7.95;;
27412;SDS011;14871;52.702;5.230;2023-12-07T00:28:23;11.25;;;8.10;;
27412;SDS011;14871;52.702;5.230;2023-12-07T00:30:49;12.25;;;8.85;;
27412;SDS011;14871;52.702;5.230;2023-12-07T00:33:15;13.77;;;8.15;;
27412;SDS011;14871;52.702;5.230;2023-12-07T00:35:42;11.43;;;8.55;;
27412;SDS011;14871;52.702;5.230;2023-12-07T00:38:07;14.75;;;9.80;;
27412;SDS011;14871;52.702;5.230;2023-12-07T00:40:33;13.02;;;9.15;;
27412;SDS011;14871;52.702;5.230;2023-12-07T00:43:02;12.75;;;8.63;;
27412;SDS011;14871;52.702;5.230;2023-12-07T00:45:28;11.98;;;8.93;;
27412;SDS011;14871;52.702;5.230;2023-12-07T00:47:53;11.13;;;8.68;;
27412;SDS011;14871;52.702;5.230;2023-12-07T00:50:19;14.32;;;9.32;;
27412;SDS011;14871;52.702;5.230;2023-12-07T00:52:45;12.75;;;8.90;;
27412;SDS011;14871;52.702;5.230;2023-12-07T00:55:10;12.15;;;8.48;;
27412;SDS011;14871;52.702;5.230;2023-12-07T00:57:36;12.05;;;8.77;;
27412;SDS011;14871;52.702;5.230;2023-12-07T01:00:02;11.18;;;8.43;;
27412;SDS011;14871;52.702;5.230;2023-12-07T01:02:28;14.95;;;9.02;;
27412;SDS011;14871;52.702;5.230;2023-12-07T01:04:54;14.05;;;8.80;;
27412;SDS011;14871;52.702;5.230;2023-12-07T01:07:20;14.65;;;9.02;;
27412;SDS011;14871;52.702;5.230;2023-12-07T01:09:46;12.60;;;8.80;;
27412;SDS011;14871;52.702;5.230;2023-12-07T01:12:11;12.45;;;8.82;;
27412;SDS011;14871;52.702;5.230;2023-12-07T01:14:37;11.68;;;9.40;;
27412;SDS011;14871;52.702;5.230;2023-12-07T01:17:03;12.75;;;8.93;;
27412;SDS011;14871;52.702;5.230;2023-12-07T01:19:29;12.80;;;9.05;;
27412;SDS011;14871;52.702;5.230;2023-12-07T01:21:54;15.43;;;10.30;;
27412;SDS011;14871;52.702;5.230;2023-12-07T01:24:20;12.18;;;9.38;;
27412;SDS011;14871;52.702;5.230;2023-12-07T01:26:46;13.48;;;9.80;;
27412;SDS011;14871;52.702;5.230;2023-12-07T01:29:11;13.38;;;9.77;;
27412;SDS011;14871;52.702;5.230;2023-12-07T01:31:38;11.38;;;8.63;;
27412;SDS011;14871;52.702;5.230;2023-12-07T01:34:05;12.52;;;8.63;;
27412;SDS011;14871;52.702;5.230;2023-12-07T01:36:31;14.90;;;9.30;;
27412;SDS011;14871;52.702;5.230;2023-12-07T01:38:56;13.10;;;8.95;;
27412;SDS011;14871;52.702;5.230;2023-12-07T01:41:23;14.68;;;9.68;;
27412;SDS011;14871;52.702;5.230;2023-12-07T01:43:49;17.00;;;10.20;;
27412;SDS011;14871;52.702;5.230;2023-12-07T01:46:15;13.32;;;9.43;;
27412;SDS011;14871;52.702;5.230;2023-12-07T01:48:42;17.80;;;10.50;;
27412;SDS011;14871;52.702;5.230;2023-12-07T01:51:08;17.25;;;9.90;;
27412;SDS011;14871;52.702;5.230;2023-12-07T01:53:35;14.52;;;10.50;;
27412;SDS011;14871;52.702;5.230;2023-12-07T01:56:02;14.90;;;10.75;;
27412;SDS011;14871;52.702;5.230;2023-12-07T01:58:28;17.20;;;10.85;;
27412;SDS011;14871;52.702;5.230;2023-12-07T02:00:55;16.55;;;11.02;;
27412;SDS011;14871;52.702;5.230;2023-12-07T02:03:21;17.77;;;11.43;;
27412;SDS011;14871;52.702;5.230;2023-12-07T02:05:47;15.63;;;10.90;;
27412;SDS011;14871;52.702;5.230;2023-12-07T02:08:14;17.92;;;11.70;;
27412;SDS011;14871;52.702;5.230;2023-12-07T02:10:40;16.27;;;10.35;;
27412;SDS011;14871;52.702;5.230;2023-12-07T02:13:06;14.77;;;10.52;;
27412;SDS011;14871;52.702;5.230;2023-12-07T02:15:32;14.60;;;10.82;;
27412;SDS011;14871;52.702;5.230;2023-12-07T02:21:04;16.70;;;11.55;;
27412;SDS011;14871;52.702;5.230;2023-12-07T02:23:35;16.38;;;11.63;;
27412;SDS011;14871;52.702;5.230;2023-12-07T02:26:05;17.30;;;11.27;;
27412;SDS011;14871;52.702;5.230;2023-12-07T02:28:33;18.42;;;11.27;;
27412;SDS011;14871;52.702;5.230;2023-12-07T02:30:59;20.63;;;10.75;;
27412;SDS011;14871;52.702;5.230;2023-12-07T02:33:24;13.73;;;10.43;;
27412;SDS011;14871;52.702;5.230;2023-12-07T02:35:50;13.48;;;10.63;;
27412;SDS011;14871;52.702;5.230;2023-12-07T02:38:16;14.32;;;9.82;;
27412;SDS011;14871;52.702;5.230;2023-12-07T02:40:42;16.77;;;10.27;;
27412;SDS011;14871;52.702;5.230;2023-12-07T02:43:09;16.90;;;10.45;;
27412;SDS011;14871;52.702;5.230;2023-12-07T02:45:36;15.82;;;9.63;;
27412;SDS011;14871;52.702;5.230;2023-12-07T02:48:01;15.82;;;10.00;;
27412;SDS011;14871;52.702;5.230;2023-12-07T02:50:27;15.68;;;10.80;;
27412;SDS011;14871;52.702;5.230;2023-12-07T02:52:52;13.98;;;9.98;;
27412;SDS011;14871;52.702;5.230;2023-12-07T02:55:18;15.70;;;10.77;;
27412;SDS011;14871;52.702;5.230;2023-12-07T02:57:44;13.63;;;10.43;;
27412;SDS011;14871;52.702;5.230;2023-12-07T03:00:10;14.90;;;10.43;;
27412;SDS011;14871;52.702;5.230;2023-12-07T03:02:38;13.77;;;10.32;;
27412;SDS011;14871;52.702;5.230;2023-12-07T03:05:04;15.00;;;10.35;;
27412;SDS011;14871;52.702;5.230;2023-12-07T03:07:31;14.15;;;10.23;;
27412;SDS011;14871;52.702;5.230;2023-12-07T03:09:57;16.73;;;10.38;;
27412;SDS011;14871;52.702;5.230;2023-12-07T03:12:23;17.25;;;11.43;;
27412;SDS011;14871;52.702;5.230;2023-12-07T03:14:48;15.73;;;10.57;;
27412;SDS011;14871;52.702;5.230;2023-12-07T03:17:14;16.60;;;10.52;;
27412;SDS011;14871;52.702;5.230;2023-12-07T03:19:40;16.63;;;10.30;;
27412;SDS011;14871;52.702;5.230;2023-12-07T03:22:07;13.25;;;9.82;;
27412;SDS011;14871;52.702;5.230;2023-12-07T03:24:36;16.92;;;10.88;;
27412;SDS011;14871;52.702;5.230;2023-12-07T03:27:02;16.73;;;10.13;;
27412;SDS011;14871;52.702;5.230;2023-12-07T03:29:28;14.23;;;8.90;;
27412;SDS011;14871;52.702;5.230;2023-12-07T03:31:54;16.58;;;9.55;;
27412;SDS011;14871;52.702;5.230;2023-12-07T03:34:20;20.42;;;10.27;;
27412;SDS011;14871;52.702;5.230;2023-12-07T03:36:46;16.10;;;9.55;;
27412;SDS011;14871;52.702;5.230;2023-12-07T03:39:12;17.80;;;10.07;;
27412;SDS011;14871;52.702;5.230;2023-12-07T03:41:39;13.75;;;10.15;;
27412;SDS011;14871;52.702;5.230;2023-12-07T03:44:04;17.63;;;9.35;;
27412;SDS011;14871;52.702;5.230;2023-12-07T03:46:30;17.17;;;10.10;;
27412;SDS011;14871;52.702;5.230;2023-12-07T03:48:55;16.55;;;10.07;;
27412;SDS011;14871;52.702;5.230;2023-12-07T03:51:21;15.07;;;9.35;;
27412;SDS011;14871;52.702;5.230;2023-12-07T03:53:46;15.07;;;9.98;;
27412;SDS011;14871;52.702;5.230;2023-12-07T03:56:25;14.02;;;9.27;;
27412;SDS011;14871;52.702;5.230;2023-12-07T03:58:51;16.30;;;9.57;;
27412;SDS011;14871;52.702;5.230;2023-12-07T04:01:16;12.57;;;9.43;;
27412;SDS011;14871;52.702;5.230;2023-12-07T04:03:42;14.55;;;9.38;;
27412;SDS011;14871;52.702;5.230;2023-12-07T04:06:08;16.88;;;9.40;;
27412;SDS011;14871;52.702;5.230;2023-12-07T04:08:34;18.63;;;10.90;;
27412;SDS011;14871;52.702;5.230;2023-12-07T04:10:59;16.27;;;10.15;;
27412;SDS011;14871;52.702;5.230;2023-12-07T04:13:25;15.90;;;10.45;;
27412;SDS011;14871;52.702;5.230;2023-12-07T04:15:50;14.23;;;9.90;;
27412;SDS011;14871;52.702;5.230;2023-12-07T04:18:16;16.70;;;9.93;;
27412;SDS011;14871;52.702;5.230;2023-12-07T04:20:42;17.67;;;11.05;;
27412;SDS011;14871;52.702;5.230;2023-12-07T04:23:08;17.25;;;10.57;;
27412;SDS011;14871;52.702;5.230;2023-12-07T04:25:33;15.55;;;9.70;;
27412;SDS011;14871;52.702;5.230;2023-12-07T04:27:59;17.23;;;9.70;;
27412;SDS011;14871;52.702;5.230;2023-12-07T04:30:24;15.48;;;10.02;;
27412;SDS011;14871;52.702;5.230;2023-12-07T04:32:50;17.25;;;10.50;;
27412;SDS011;14871;52.702;5.230;2023-12-07T04:35:16;17.88;;;10.18;;
27412;SDS011;14871;52.702;5.230;2023-12-07T04:37:41;18.98;;;10.38;;
27412;SDS011;14871;52.702;5.230;2023-12-07T04:40:07;18.30;;;10.35;;
27412;SDS011;14871;52.702;5.230;2023-12-07T04:42:33;18.00;;;10.27;;
27412;SDS011;14871;52.702;5.230;2023-12-07T04:44:59;16.98;;;10.55;;
27412;SDS011;14871;52.702;5.230;2023-12-07T04:47:24;18.77;;;10.50;;
27412;SDS011;14871;52.702;5.230;2023-12-07T04:49:50;19.17;;;10.93;;
27412;SDS011;14871;52.702;5.230;2023-12-07T04:52:16;18.05;;;10.23;;
27412;SDS011;14871;52.702;5.230;2023-12-07T04:54:41;15.27;;;10.23;;
27412;SDS011;14871;52.702;5.230;2023-12-07T04:57:07;18.85;;;9.88;;
27412;SDS011;14871;52.702;5.230;2023-12-07T04:59:33;16.50;;;9.82;;
27412;SDS011;14871;52.702;5.230;2023-12-07T05:01:59;13.30;;;9.93;;
27412;SDS011;14871;52.702;5.230;2023-12-07T05:04:25;15.75;;;9.68;;
27412;SDS011;14871;52.702;5.230;2023-12-07T05:06:51;18.67;;;10.38;;
27412;SDS011;14871;52.702;5.230;2023-12-07T05:09:16;19.58;;;10.98;;
27412;SDS011;14871;52.702;5.230;2023-12-07T05:11:42;17.45;;;10.70;;
27412;SDS011;14871;52.702;5.230;2023-12-07T05:14:10;17.92;;;11.02;;
27412;SDS011;14871;52.702;5.230;2023-12-07T05:16:35;22.42;;;10.60;;
27412;SDS011;14871;52.702;5.230;2023-12-07T05:19:01;18.10;;;10.32;;
27412;SDS011;14871;52.702;5.230;2023-12-07T05:21:27;21.08;;;11.80;;
27412;SDS011;14871;52.702;5.230;2023-12-07T05:23:53;15.15;;;10.48;;
27412;SDS011;14871;52.702;5.230;2023-12-07T05:26:18;16.65;;;10.77;;
27412;SDS011;14871;52.702;5.230;2023-12-07T05:28:46;18.58;;;10.88;;
27412;SDS011;14871;52.702;5.230;2023-12-07T05:31:18;17.98;;;10.35;;
27412;SDS011;14871;52.702;5.230;2023-12-07T05:33:44;18.73;;;11.25;;
27412;SDS011;14871;52.702;5.230;2023-12-07T05:36:09;16.17;;;11.10;;
27412;SDS011;14871;52.702;5.230;2023-12-07T05:38:35;18.27;;;11.40;;
27412;SDS011;14871;52.702;5.230;2023-12-07T05:41:01;17.23;;;11.13;;
27412;SDS011;14871;52.702;5.230;2023-12-07T05:43:26;19.70;;;11.23;;
27412;SDS011;14871;52.702;5.230;2023-12-07T05:45:52;20.73;;;12.45;;
27412;SDS011;14871;52.702;5.230;2023-12-07T05:48:17;18.05;;;11.55;;
27412;SDS011;14871;52.702;5.230;2023-12-07T05:50:43;19.42;;;11.48;;
27412;SDS011;14871;52.702;5.230;2023-12-07T05:53:09;21.95;;;12.60;;
27412;SDS011;14871;52.702;5.230;2023-12-07T05:55:35;21.95;;;12.82;;
27412;SDS011;14871;52.702;5.230;2023-12-07T05:58:01;18.40;;;11.68;;
27412;SDS011;14871;52.702;5.230;2023-12-07T06:00:28;21.98;;;12.57;;
27412;SDS011;14871;52.702;5.230;2023-12-07T06:02:54;17.00;;;12.23;;
27412;SDS011;14871;52.702;5.230;2023-12-07T06:05:19;24.63;;;13.65;;
27412;SDS011;14871;52.702;5.230;2023-12-07T06:07:46;22.17;;;13.00;;
27412;SDS011;14871;52.702;5.230;2023-12-07T06:10:11;27.40;;;15.85;;
27412;SDS011;14871;52.702;5.230;2023-12-07T06:12:37;30.05;;;16.23;;
27412;SDS011;14871;52.702;5.230;2023-12-07T06:15:03;22.88;;;13.88;;
27412;SDS011;14871;52.702;5.230;2023-12-07T06:17:31;25.23;;;14.95;;
27412;SDS011;14871;52.702;5.230;2023-12-07T06:19:58;21.83;;;14.77;;
27412;SDS011;14871;52.702;5.230;2023-12-07T06:22:24;23.38;;;14.80;;
27412;SDS011;14871;52.702;5.230;2023-12-07T06:24:50;21.60;;;14.48;;
27412;SDS011;14871;52.702;5.230;2023-12-07T06:27:15;23.65;;;13.70;;
27412;SDS011;14871;52.702;5.230;2023-12-07T06:29:41;24.90;;;15.50;;
27412;SDS011;14871;52.702;5.230;2023-12-07T06:32:06;22.73;;;14.63;;
27412;SDS011;14871;52.702;5.230;2023-12-07T06:34:32;25.23;;;15.32;;
27412;SDS011;14871;52.702;5.230;2023-12-07T06:36:57;26.70;;;14.65;;
27412;SDS011;14871;52.702;5.230;2023-12-07T06:39:23;23.60;;;14.48;;
27412;SDS011;14871;52.702;5.230;2023-12-07T06:41:49;24.98;;;15.00;;
27412;SDS011;14871;52.702;5.230;2023-12-07T06:44:14;22.42;;;14.90;;
27412;SDS011;14871;52.702;5.230;2023-12-07T06:46:40;24.25;;;15.35;;
27412;SDS011;14871;52.702;5.230;2023-12-07T06:49:05;15.88;;;6.20;;
27412;SDS011;14871;52.702;5.230;2023-12-07T06:51:31;8.95;;;4.38;;
27412;SDS011;14871;52.702;5.230;2023-12-07T06:53:57;12.18;;;6.65;;
27412;SDS011;14871;52.702;5.230;2023-12-07T06:56:22;15.38;;;4.95;;
27412;SDS011;14871;52.702;5.230;2023-12-07T06:58:48;9.75;;;6.10;;
27412;SDS011;14871;52.702;5.230;2023-12-07T07:01:14;9.40;;;4.90;;
27412;SDS011;14871;52.702;5.230;2023-12-07T07:03:39;11.23;;;5.72;;
27412;SDS011;14871;52.702;5.230;2023-12-07T07:06:05;7.75;;;4.55;;
27412;SDS011;14871;52.702;5.230;2023-12-07T07:08:31;11.35;;;6.00;;
27412;SDS011;14871;52.702;5.230;2023-12-07T07:10:56;13.27;;;6.07;;
27412;SDS011;14871;52.702;5.230;2023-12-07T07:13:22;11.65;;;6.47;;
27412;SDS011;14871;52.702;5.230;2023-12-07T07:15:47;11.55;;;5.90;;
27412;SDS011;14871;52.702;5.230;2023-12-07T07:18:13;12.98;;;7.00;;
27412;SDS011;14871;52.702;5.230;2023-12-07T07:20:39;15.18;;;7.28;;
27412;SDS011;14871;52.702;5.230;2023-12-07T07:23:04;16.77;;;6.43;;
27412;SDS011;14871;52.702;5.230;2023-12-07T07:25:30;20.25;;;6.40;;
27412;SDS011;14871;52.702;5.230;2023-12-07T07:27:56;13.18;;;6.15;;
27412;SDS011;14871;52.702;5.230;2023-12-07T07:30:21;16.17;;;6.32;;
27412;SDS011;14871;52.702;5.230;2023-12-07T07:32:47;10.75;;;6.28;;
27412;SDS011;14871;52.702;5.230;2023-12-07T07:35:13;10.35;;;5.60;;
27412;SDS011;14871;52.702;5.230;2023-12-07T07:37:39;12.35;;;6.43;;
27412;SDS011;14871;52.702;5.230;2023-12-07T07:40:06;16.38;;;7.45;;
27412;SDS011;14871;52.702;5.230;2023-12-07T07:42:33;13.93;;;6.43;;
27412;SDS011;14871;52.702;5.230;2023-12-07T07:44:59;11.48;;;6.00;;
27412;SDS011;14871;52.702;5.230;2023-12-07T07:47:24;11.05;;;6.00;;
27412;SDS011;14871;52.702;5.230;2023-12-07T07:49:50;12.10;;;5.78;;
27412;SDS011;14871;52.702;5.230;2023-12-07T07:52:16;16.15;;;6.50;;
27412;SDS011;14871;52.702;5.230;2023-12-07T07:54:42;15.18;;;5.95;;
27412;SDS011;14871;52.702;5.230;2023-12-07T07:57:07;12.05;;;6.07;;
27412;SDS011;14871;52.702;5.230;2023-12-07T07:59:33;11.65;;;5.65;;
27412;SDS011;14871;52.702;5.230;2023-12-07T08:01:59;15.57;;;6.20;;
27412;SDS011;14871;52.702;5.230;2023-12-07T08:04:24;11.32;;;5.85;;
27412;SDS011;14871;52.702;5.230;2023-12-07T08:06:50;11.85;;;6.63;;
27412;SDS011;14871;52.702;5.230;2023-12-07T08:09:16;15.75;;;7.22;;
27412;SDS011;14871;52.702;5.230;2023-12-07T08:11:41;12.90;;;5.93;;
27412;SDS011;14871;52.702;5.230;2023-12-07T08:14:07;14.60;;;6.43;;
27412;SDS011;14871;52.702;5.230;2023-12-07T08:16:33;18.13;;;7.55;;
27412;SDS011;14871;52.702;5.230;2023-12-07T08:18:59;13.55;;;7.50;;
27412;SDS011;14871;52.702;5.230;2023-12-07T08:21:25;12.95;;;7.72;;
27412;SDS011;14871;52.702;5.230;2023-12-07T08:23:50;19.05;;;8.38;;
27412;SDS011;14871;52.702;5.230;2023-12-07T08:26:16;12.55;;;6.70;;
27412;SDS011;14871;52.702;5.230;2023-12-07T08:28:42;14.93;;;6.82;;
27412;SDS011;14871;52.702;5.230;2023-12-07T08:31:08;13.88;;;7.00;;
27412;SDS011;14871;52.702;5.230;2023-12-07T08:33:35;16.60;;;7.35;;
27412;SDS011;14871;52.702;5.230;2023-12-07T08:36:01;12.52;;;6.40;;
27412;SDS011;14871;52.702;5.230;2023-12-07T08:38:27;14.00;;;7.57;;
27412;SDS011;14871;52.702;5.230;2023-12-07T08:40:52;29.58;;;9.38;;
27412;SDS011;14871;52.702;5.230;2023-12-07T08:43:20;30.85;;;8.98;;
27412;SDS011;14871;52.702;5.230;2023-12-07T08:45:50;50.10;;;9.45;;
27412;SDS011;14871;52.702;5.230;2023-12-07T08:48:16;29.10;;;9.70;;
27412;SDS011;14871;52.702;5.230;2023-12-07T08:50:43;40.35;;;9.85;;
27412;SDS011;14871;52.702;5.230;2023-12-07T08:53:08;43.72;;;8.38;;
27412;SDS011;14871;52.702;5.230;2023-12-07T08:55:34;66.28;;;12.15;;
27412;SDS011;14871;52.702;5.230;2023-12-07T08:58:00;69.90;;;11.48;;
27412;SDS011;14871;52.702;5.230;2023-12-07T09:00:25;33.63;;;7.22;;
27412;SDS011;14871;52.702;5.230;2023-12-07T09:02:51;46.58;;;7.93;;
27412;SDS011;14871;52.702;5.230;2023-12-07T09:05:17;51.85;;;9.20;;
27412;SDS011;14871;52.702;5.230;2023-12-07T09:07:43;46.40;;;8.48;;
27412;SDS011;14871;52.702;5.230;2023-12-07T09:10:08;43.00;;;8.25;;
27412;SDS011;14871;52.702;5.230;2023-12-07T09:12:34;14.70;;;5.90;;
27412;SDS011;14871;52.702;5.230;2023-12-07T09:15:03;60.17;;;11.77;;
27412;SDS011;14871;52.702;5.230;2023-12-07T09:17:29;50.63;;;10.10;;
27412;SDS011;14871;52.702;5.230;2023-12-07T09:19:55;35.42;;;9.88;;
27412;SDS011;14871;52.702;5.230;2023-12-07T09:22:20;45.13;;;10.68;;
27412;SDS011;14871;52.702;5.230;2023-12-07T09:24:46;26.65;;;9.90;;
27412;SDS011;14871;52.702;5.230;2023-12-07T09:27:15;70.10;;;14.77;;
27412;SDS011;14871;52.702;5.230;2023-12-07T09:29:40;56.92;;;8.82;;
27412;SDS011;14871;52.702;5.230;2023-12-07T09:32:07;57.92;;;17.10;;
27412;SDS011;14871;52.702;5.230;2023-12-07T09:34:33;73.25;;;12.98;;
27412;SDS011;14871;52.702;5.230;2023-12-07T09:37:08;51.75;;;10.73;;
27412;SDS011;14871;52.702;5.230;2023-12-07T09:39:34;38.45;;;9.57;;
27412;SDS011;14871;52.702;5.230;2023-12-07T09:42:01;59.92;;;12.38;;
27412;SDS011;14871;52.702;5.230;2023-12-07T09:44:26;48.13;;;14.32;;
27412;SDS011;14871;52.702;5.230;2023-12-07T09:46:53;47.38;;;15.10;;
27412;SDS011;14871;52.702;5.230;2023-12-07T09:49:19;43.08;;;10.60;;
27412;SDS011;14871;52.702;5.230;2023-12-07T09:51:46;67.72;;;11.18;;
27412;SDS011;14871;52.702;5.230;2023-12-07T09:54:12;48.05;;;12.52;;
27412;SDS011;14871;52.702;5.230;2023-12-07T09:56:38;73.63;;;14.57;;
27412;SDS011;14871;52.702;5.230;2023-12-07T09:59:04;75.82;;;15.07;;
27412;SDS011;14871;52.702;5.230;2023-12-07T10:01:31;67.57;;;15.23;;
27412;SDS011;14871;52.702;5.230;2023-12-07T10:04:19;98.30;;;18.35;;
27412;SDS011;14871;52.702;5.230;2023-12-07T10:06:47;67.43;;;16.23;;
27412;SDS011;14871;52.702;5.230;2023-12-07T10:09:14;44.10;;;14.20;;
27412;SDS011;14871;52.702;5.230;2023-12-07T10:11:40;65.85;;;17.38;;
27412;SDS011;14871;52.702;5.230;2023-12-07T10:14:06;60.85;;;16.90;;
27412;SDS011;14871;52.702;5.230;2023-12-07T10:16:33;63.67;;;16.83;;
27412;SDS011;14871;52.702;5.230;2023-12-07T10:19:14;40.42;;;16.33;;
27412;SDS011;14871;52.702;5.230;2023-12-07T10:21:42;65.60;;;16.65;;
27412;SDS011;14871;52.702;5.230;2023-12-07T10:24:08;52.17;;;16.80;;
27412;SDS011;14871;52.702;5.230;2023-12-07T10:26:35;76.05;;;18.90;;
27412;SDS011;14871;52.702;5.230;2023-12-07T10:29:06;104.80;;;18.27;;
27412;SDS011;14871;52.702;5.230;2023-12-07T10:31:32;73.80;;;16.15;;
27412;SDS011;14871;52.702;5.230;2023-12-07T10:33:59;57.28;;;16.40;;
27412;SDS011;14871;52.702;5.230;2023-12-07T10:36:25;79.57;;;17.30;;
27412;SDS011;14871;52.702;5.230;2023-12-07T10:38:51;76.47;;;17.30;;
27412;SDS011;14871;52.702;5.230;2023-12-07T10:41:21;55.28;;;16.48;;
27412;SDS011;14871;52.702;5.230;2023-12-07T10:43:51;91.82;;;18.73;;
27412;SDS011;14871;52.702;5.230;2023-12-07T10:46:19;56.47;;;18.98;;
27412;SDS011;14871;52.702;5.230;2023-12-07T10:48:46;65.40;;;19.08;;
27412;SDS011;14871;52.702;5.230;2023-12-07T10:51:23;76.57;;;20.20;;
27412;SDS011;14871;52.702;5.230;2023-12-07T10:53:55;53.38;;;20.05;;
27412;SDS011;14871;52.702;5.230;2023-12-07T10:56:45;58.03;;;20.70;;
27412;SDS011;14871;52.702;5.230;2023-12-07T10:59:10;72.30;;;19.17;;
27412;SDS011;14871;52.702;5.230;2023-12-07T11:01:39;66.45;;;19.60;;
27412;SDS011;14871;52.702;5.230;2023-12-07T11:04:07;58.90;;;18.90;;
27412;SDS011;14871;52.702;5.230;2023-12-07T11:06:36;59.33;;;18.40;;
27412;SDS011;14871;52.702;5.230;2023-12-07T11:09:07;63.10;;;18.63;;
27412;SDS011;14871;52.702;5.230;2023-12-07T11:14:12;60.90;;;18.17;;
27412;SDS011;14871;52.702;5.230;2023-12-07T11:16:41;53.50;;;17.17;;
27412;SDS011;14871;52.702;5.230;2023-12-07T11:22:01;46.30;;;16.20;;
27412;SDS011;14871;52.702;5.230;2023-12-07T11:24:31;82.35;;;18.60;;
27412;SDS011;14871;52.702;5.230;2023-12-07T11:26:57;75.05;;;17.25;;
27412;SDS011;14871;52.702;5.230;2023-12-07T11:29:23;63.95;;;17.42;;
27412;SDS011;14871;52.702;5.230;2023-12-07T11:31:50;75.47;;;18.90;;
27412;SDS011;14871;52.702;5.230;2023-12-07T11:37:02;61.72;;;17.85;;
27412;SDS011;14871;52.702;5.230;2023-12-07T11:39:28;65.63;;;19.08;;
27412;SDS011;14871;52.702;5.230;2023-12-07T11:41:55;41.03;;;18.45;;
27412;SDS011;14871;52.702;5.230;2023-12-07T11:44:24;48.35;;;17.00;;
27412;SDS011;14871;52.702;5.230;2023-12-07T11:46:58;41.45;;;17.27;;
27412;SDS011;14871;52.702;5.230;2023-12-07T11:49:23;48.60;;;17.92;;
27412;SDS011;14871;52.702;5.230;2023-12-07T11:51:49;43.08;;;19.27;;
27412;SDS011;14871;52.702;5.230;2023-12-07T11:54:14;41.22;;;17.58;;
27412;SDS011;14871;52.702;5.230;2023-12-07T11:56:42;36.00;;;16.23;;
27412;SDS011;14871;52.702;5.230;2023-12-07T11:59:08;50.58;;;16.98;;
27412;SDS011;14871;52.702;5.230;2023-12-07T12:01:34;35.53;;;15.57;;
27412;SDS011;14871;52.702;5.230;2023-12-07T12:04:00;39.05;;;16.55;;
27412;SDS011;14871;52.702;5.230;2023-12-07T12:06:25;42.20;;;15.18;;
27412;SDS011;14871;52.702;5.230;2023-12-07T12:08:52;35.05;;;16.15;;
27412;SDS011;14871;52.702;5.230;2023-12-07T12:11:17;38.33;;;15.93;;
27412;SDS011;14871;52.702;5.230;2023-12-07T12:13:44;36.70;;;15.18;;
27412;SDS011;14871;52.702;5.230;2023-12-07T12:16:11;25.60;;;15.35;;
27412;SDS011;14871;52.702;5.230;2023-12-07T12:18:38;43.28;;;16.65;;
27412;SDS011;14871;52.702;5.230;2023-12-07T12:21:04;29.30;;;15.25;;
27412;SDS011;14871;52.702;5.230;2023-12-07T12:23:33;35.55;;;15.57;;
27412;SDS011;14871;52.702;5.230;2023-12-07T12:25:59;28.33;;;15.80;;
27412;SDS011;14871;52.702;5.230;2023-12-07T12:28:26;31.90;;;15.35;;
27412;SDS011;14871;52.702;5.230;2023-12-07T12:30:51;27.05;;;14.30;;
27412;SDS011;14871;52.702;5.230;2023-12-07T12:33:17;27.02;;;14.63;;
27412;SDS011;14871;52.702;5.230;2023-12-07T12:35:43;36.45;;;14.63;;
27412;SDS011;14871;52.702;5.230;2023-12-07T12:38:09;44.58;;;15.32;;
27412;SDS011;14871;52.702;5.230;2023-12-07T12:40:36;31.20;;;14.93;;
27412;SDS011;14871;52.702;5.230;2023-12-07T12:43:02;33.15;;;15.30;;
27412;SDS011;14871;52.702;5.230;2023-12-07T12:45:27;38.53;;;15.98;;
27412;SDS011;14871;52.702;5.230;2023-12-07T12:47:53;42.05;;;17.02;;
27412;SDS011;14871;52.702;5.230;2023-12-07T12:53:17;35.30;;;13.85;;
27412;SDS011;14871;52.702;5.230;2023-12-07T12:55:43;40.47;;;16.10;;
27412;SDS011;14871;52.702;5.230;2023-12-07T12:58:11;27.20;;;15.13;;
27412;SDS011;14871;52.702;5.230;2023-12-07T13:00:37;35.00;;;14.50;;
27412;SDS011;14871;52.702;5.230;2023-12-07T13:03:04;26.55;;;14.35;;
27412;SDS011;14871;52.702;5.230;2023-12-07T13:05:31;28.20;;;13.95;;
27412;SDS011;14871;52.702;5.230;2023-12-07T13:08:01;23.92;;;13.90;;
27412;SDS011;14871;52.702;5.230;2023-12-07T13:10:27;24.90;;;12.95;;
27412;SDS011;14871;52.702;5.230;2023-12-07T13:12:53;28.67;;;14.43;;
27412;SDS011;14871;52.702;5.230;2023-12-07T13:15:18;35.03;;;14.45;;
27412;SDS011;14871;52.702;5.230;2023-12-07T13:17:44;44.53;;;16.85;;
27412;SDS011;14871;52.702;5.230;2023-12-07T13:20:10;30.27;;;15.68;;
27412;SDS011;14871;52.702;5.230;2023-12-07T13:22:40;25.60;;;13.18;;
27412;SDS011;14871;52.702;5.230;2023-12-07T13:25:08;28.52;;;13.73;;
27412;SDS011;14871;52.702;5.230;2023-12-07T13:27:34;27.00;;;12.45;;
27412;SDS011;14871;52.702;5.230;2023-12-07T13:30:01;25.52;;;13.55;;
27412;SDS011;14871;52.702;5.230;2023-12-07T13:32:30;22.33;;;11.82;;
27412;SDS011;14871;52.702;5.230;2023-12-07T13:34:57;25.02;;;13.48;;
27412;SDS011;14871;52.702;5.230;2023-12-07T13:37:22;25.10;;;13.25;;
27412;SDS011;14871;52.702;5.230;2023-12-07T13:39:48;26.50;;;13.25;;
27412;SDS011;14871;52.702;5.230;2023-12-07T13:42:20;26.40;;;14.00;;
27412;SDS011;14871;52.702;5.230;2023-12-07T13:44:46;27.38;;;13.95;;
27412;SDS011;14871;52.702;5.230;2023-12-07T13:47:12;25.08;;;13.63;;
27412;SDS011;14871;52.702;5.230;2023-12-07T13:49:42;26.77;;;14.05;;
27412;SDS011;14871;52.702;5.230;2023-12-07T13:52:07;37.90;;;15.60;;
27412;SDS011;14871;52.702;5.230;2023-12-07T13:54:33;52.42;;;19.85;;
27412;SDS011;14871;52.702;5.230;2023-12-07T13:57:01;28.27;;;13.23;;
27412;SDS011;14871;52.702;5.230;2023-12-07T13:59:28;25.63;;;14.48;;
27412;SDS011;14871;52.702;5.230;2023-12-07T14:01:54;28.40;;;13.18;;
27412;SDS011;14871;52.702;5.230;2023-12-07T14:04:20;24.92;;;12.27;;
27412;SDS011;14871;52.702;5.230;2023-12-07T14:06:46;22.63;;;11.70;;
27412;SDS011;14871;52.702;5.230;2023-12-07T14:09:11;24.13;;;11.63;;
27412;SDS011;14871;52.702;5.230;2023-12-07T14:11:37;23.20;;;11.57;;
27412;SDS011;14871;52.702;5.230;2023-12-07T14:14:04;26.33;;;12.57;;
27412;SDS011;14871;52.702;5.230;2023-12-07T14:16:30;26.67;;;12.45;;
27412;SDS011;14871;52.702;5.230;2023-12-07T14:18:55;24.17;;;12.75;;
27412;SDS011;14871;52.702;5.230;2023-12-07T14:21:21;21.17;;;12.00;;
27412;SDS011;14871;52.702;5.230;2023-12-07T14:23:47;28.80;;;12.73;;
27412;SDS011;14871;52.702;5.230;2023-12-07T14:26:13;25.60;;;13.15;;
27412;SDS011;14871;52.702;5.230;2023-12-07T14:28:39;25.20;;;13.18;;
27412;SDS011;14871;52.702;5.230;2023-12-07T14:31:04;26.88;;;12.80;;
27412;SDS011;14871;52.702;5.230;2023-12-07T14:33:31;27.15;;;13.23;;
27412;SDS011;14871;52.702;5.230;2023-12-07T14:35:57;26.38;;;13.10;;